sensor_id;sensor_type;location;lat;lon;timestamp;P1;durP1;ratioP1;P2;durP2;ratioP2
16029;SDS011;34770;49.272;11.070;2023-02-28T00:00:21;4.00;;;3.50;;
16029;SDS011;34770;49.272;11.070;2023-02-28T00:02:47;4.97;;;3.40;;
16029;SDS011;34770;49.272;11.070;2023-02-28T00:05:15;6.23;;;3.40;;
16029;SDS011;34770;49.272;11.070;2023-02-28T00:07:43;4.47;;;4.07;;
16029;SDS011;34770;49.272;11.070;2023-02-28T00:10:09;4.10;;;3.47;;
16029;SDS011;34770;49.272;11.070;2023-02-28T00:12:37;4.13;;;3.70;;
16029;SDS011;34770;49.272;11.070;2023-02-28T00:15:06;5.07;;;3.87;;
16029;SDS011;34770;49.272;11.070;2023-02-28T00:17:33;4.23;;;3.50;;
16029;SDS011;34770;49.272;11.070;2023-02-28T00:19:58;4.23;;;3.73;;
16029;SDS011;34770;49.272;11.070;2023-02-28T00:22:37;6.13;;;3.40;;
16029;SDS011;34770;49.272;11.070;2023-02-28T00:25:04;4.13;;;3.63;;
16029;SDS011;34770;49.272;11.070;2023-02-28T00:27:32;4.80;;;4.17;;
16029;SDS011;34770;49.272;11.070;2023-02-28T00:29:58;4.60;;;3.60;;
16029;SDS011;34770;49.272;11.070;2023-02-28T00:32:23;3.43;;;3.10;;
16029;SDS011;34770;49.272;11.070;2023-02-28T00:34:49;4.60;;;4.20;;
16029;SDS011;34770;49.272;11.070;2023-02-28T00:37:15;4.73;;;3.70;;
16029;SDS011;34770;49.272;11.070;2023-02-28T00:39:40;5.20;;;4.20;;
16029;SDS011;34770;49.272;11.070;2023-02-28T00:42:06;5.43;;;3.40;;
16029;SDS011;34770;49.272;11.070;2023-02-28T00:44:32;4.93;;;4.47;;
16029;SDS011;34770;49.272;11.070;2023-02-28T00:46:58;4.30;;;3.90;;
16029;SDS011;34770;49.272;11.070;2023-02-28T00:49:25;5.27;;;3.60;;
16029;SDS011;34770;49.272;11.070;2023-02-28T00:51:52;4.47;;;3.70;;
16029;SDS011;34770;49.272;11.070;2023-02-28T00:54:18;4.57;;;3.57;;
16029;SDS011;34770;49.272;11.070;2023-02-28T00:56:44;9.47;;;3.93;;
16029;SDS011;34770;49.272;11.070;2023-02-28T00:59:11;7.17;;;4.17;;
16029;SDS011;34770;49.272;11.070;2023-02-28T01:01:37;4.47;;;4.03;;
16029;SDS011;34770;49.272;11.070;2023-02-28T01:04:03;4.07;;;3.60;;
16029;SDS011;34770;49.272;11.070;2023-02-28T01:06:29;3.77;;;3.47;;
16029;SDS011;34770;49.272;11.070;2023-02-28T01:08:55;5.73;;;4.37;;
16029;SDS011;34770;49.272;11.070;2023-02-28T01:11:20;4.93;;;4.40;;
16029;SDS011;34770;49.272;11.070;2023-02-28T01:13:46;5.13;;;3.73;;
16029;SDS011;34770;49.272;11.070;2023-02-28T01:16:12;5.60;;;4.67;;
16029;SDS011;34770;49.272;11.070;2023-02-28T01:18:38;4.87;;;4.47;;
16029;SDS011;34770;49.272;11.070;2023-02-28T01:21:09;4.80;;;4.10;;
16029;SDS011;34770;49.272;11.070;2023-02-28T01:23:37;5.00;;;4.60;;
16029;SDS011;34770;49.272;11.070;2023-02-28T01:26:06;5.20;;;4.13;;
16029;SDS011;34770;49.272;11.070;2023-02-28T01:28:33;6.53;;;3.87;;
16029;SDS011;34770;49.272;11.070;2023-02-28T01:30:59;8.10;;;4.03;;
16029;SDS011;34770;49.272;11.070;2023-02-28T01:33:25;4.63;;;4.23;;
16029;SDS011;34770;49.272;11.070;2023-02-28T01:35:57;4.20;;;3.80;;
16029;SDS011;34770;49.272;11.070;2023-02-28T01:38:26;4.93;;;3.47;;
16029;SDS011;34770;49.272;11.070;2023-02-28T01:40:52;4.33;;;3.90;;
16029;SDS011;34770;49.272;11.070;2023-02-28T01:43:25;5.50;;;4.70;;
16029;SDS011;34770;49.272;11.070;2023-02-28T01:45:53;5.40;;;4.87;;
16029;SDS011;34770;49.272;11.070;2023-02-28T01:48:21;5.73;;;4.23;;
16029;SDS011;34770;49.272;11.070;2023-02-28T01:50:53;5.17;;;4.50;;
16029;SDS011;34770;49.272;11.070;2023-02-28T01:53:23;5.80;;;3.83;;
16029;SDS011;34770;49.272;11.070;2023-02-28T01:56:03;6.00;;;3.80;;
16029;SDS011;34770;49.272;11.070;2023-02-28T01:58:32;5.00;;;4.50;;
16029;SDS011;34770;49.272;11.070;2023-02-28T02:00:57;5.10;;;4.60;;
16029;SDS011;34770;49.272;11.070;2023-02-28T02:03:23;5.70;;;4.50;;
16029;SDS011;34770;49.272;11.070;2023-02-28T02:05:49;10.83;;;4.50;;
16029;SDS011;34770;49.272;11.070;2023-02-28T02:08:17;5.47;;;4.10;;
16029;SDS011;34770;49.272;11.070;2023-02-28T02:10:48;6.37;;;4.63;;
16029;SDS011;34770;49.272;11.070;2023-02-28T02:18:50;7.10;;;5.13;;
16029;SDS011;34770;49.272;11.070;2023-02-28T02:30:14;4.57;;;4.17;;
16029;SDS011;34770;49.272;11.070;2023-02-28T02:41:33;5.10;;;4.67;;
16029;SDS011;34770;49.272;11.070;2023-02-28T02:46:44;5.03;;;4.43;;
16029;SDS011;34770;49.272;11.070;2023-02-28T02:49:16;4.57;;;4.17;;
16029;SDS011;34770;49.272;11.070;2023-02-28T02:51:46;5.90;;;4.93;;
16029;SDS011;34770;49.272;11.070;2023-02-28T02:54:15;4.63;;;4.03;;
16029;SDS011;34770;49.272;11.070;2023-02-28T02:56:46;4.90;;;4.40;;
16029;SDS011;34770;49.272;11.070;2023-02-28T02:59:16;6.80;;;5.10;;
16029;SDS011;34770;49.272;11.070;2023-02-28T03:01:48;5.70;;;4.17;;
16029;SDS011;34770;49.272;11.070;2023-02-28T03:04:17;6.30;;;4.83;;
16029;SDS011;34770;49.272;11.070;2023-02-28T03:06:45;5.60;;;4.13;;
16029;SDS011;34770;49.272;11.070;2023-02-28T03:09:10;5.67;;;4.83;;
16029;SDS011;34770;49.272;11.070;2023-02-28T03:11:36;5.50;;;3.87;;
16029;SDS011;34770;49.272;11.070;2023-02-28T03:14:16;5.03;;;4.63;;
16029;SDS011;34770;49.272;11.070;2023-02-28T03:19:34;6.67;;;4.90;;
16029;SDS011;34770;49.272;11.070;2023-02-28T03:28:08;4.70;;;4.13;;
16029;SDS011;34770;49.272;11.070;2023-02-28T03:35:48;5.70;;;4.13;;
16029;SDS011;34770;49.272;11.070;2023-02-28T03:38:20;7.70;;;4.63;;
16029;SDS011;34770;49.272;11.070;2023-02-28T03:40:54;6.00;;;4.47;;
16029;SDS011;34770;49.272;11.070;2023-02-28T03:43:27;5.17;;;4.67;;
16029;SDS011;34770;49.272;11.070;2023-02-28T03:45:56;6.73;;;5.17;;
16029;SDS011;34770;49.272;11.070;2023-02-28T03:48:27;7.53;;;5.20;;
16029;SDS011;34770;49.272;11.070;2023-02-28T03:50:58;5.53;;;4.47;;
16029;SDS011;34770;49.272;11.070;2023-02-28T03:56:11;6.30;;;4.47;;
16029;SDS011;34770;49.272;11.070;2023-02-28T03:58:54;5.57;;;4.97;;
16029;SDS011;34770;49.272;11.070;2023-02-28T04:01:30;6.10;;;5.20;;
16029;SDS011;34770;49.272;11.070;2023-02-28T04:04:01;5.87;;;5.33;;
16029;SDS011;34770;49.272;11.070;2023-02-28T04:06:27;5.30;;;4.80;;
16029;SDS011;34770;49.272;11.070;2023-02-28T04:08:57;6.20;;;4.63;;
16029;SDS011;34770;49.272;11.070;2023-02-28T04:11:23;8.13;;;4.40;;
16029;SDS011;34770;49.272;11.070;2023-02-28T04:13:53;7.90;;;5.83;;
16029;SDS011;34770;49.272;11.070;2023-02-28T04:16:19;6.37;;;5.00;;
16029;SDS011;34770;49.272;11.070;2023-02-28T04:18:44;6.67;;;5.23;;
16029;SDS011;34770;49.272;11.070;2023-02-28T04:21:10;6.17;;;4.70;;
16029;SDS011;34770;49.272;11.070;2023-02-28T04:23:36;7.43;;;5.10;;
16029;SDS011;34770;49.272;11.070;2023-02-28T04:26:02;7.43;;;5.40;;
16029;SDS011;34770;49.272;11.070;2023-02-28T04:28:28;7.57;;;5.77;;
16029;SDS011;34770;49.272;11.070;2023-02-28T04:30:55;5.97;;;5.33;;
16029;SDS011;34770;49.272;11.070;2023-02-28T04:33:21;6.60;;;5.23;;
16029;SDS011;34770;49.272;11.070;2023-02-28T04:35:47;5.97;;;4.87;;
16029;SDS011;34770;49.272;11.070;2023-02-28T04:38:12;5.63;;;5.03;;
16029;SDS011;34770;49.272;11.070;2023-02-28T04:40:38;7.17;;;5.60;;
16029;SDS011;34770;49.272;11.070;2023-02-28T04:43:03;6.80;;;5.23;;
16029;SDS011;34770;49.272;11.070;2023-02-28T04:45:29;5.23;;;4.73;;
16029;SDS011;34770;49.272;11.070;2023-02-28T04:47:57;5.30;;;4.80;;
16029;SDS011;34770;49.272;11.070;2023-02-28T04:50:23;6.20;;;5.47;;
16029;SDS011;34770;49.272;11.070;2023-02-28T04:52:49;8.30;;;5.53;;
16029;SDS011;34770;49.272;11.070;2023-02-28T04:55:14;6.67;;;5.83;;
16029;SDS011;34770;49.272;11.070;2023-02-28T04:57:40;8.70;;;5.53;;
16029;SDS011;34770;49.272;11.070;2023-02-28T05:00:08;6.60;;;5.53;;
16029;SDS011;34770;49.272;11.070;2023-02-28T05:02:36;7.53;;;6.27;;
16029;SDS011;34770;49.272;11.070;2023-02-28T05:05:03;7.07;;;5.53;;
16029;SDS011;34770;49.272;11.070;2023-02-28T05:07:29;7.70;;;5.97;;
16029;SDS011;34770;49.272;11.070;2023-02-28T05:09:54;8.50;;;5.87;;
16029;SDS011;34770;49.272;11.070;2023-02-28T05:12:20;6.23;;;5.63;;
16029;SDS011;34770;49.272;11.070;2023-02-28T05:14:45;12.53;;;5.87;;
16029;SDS011;34770;49.272;11.070;2023-02-28T05:17:11;8.40;;;6.07;;
16029;SDS011;34770;49.272;11.070;2023-02-28T05:19:36;7.63;;;5.77;;
16029;SDS011;34770;49.272;11.070;2023-02-28T05:22:02;7.30;;;5.73;;
16029;SDS011;34770;49.272;11.070;2023-02-28T05:24:27;10.70;;;6.13;;
16029;SDS011;34770;49.272;11.070;2023-02-28T05:26:53;8.13;;;6.40;;
16029;SDS011;34770;49.272;11.070;2023-02-28T05:29:19;10.03;;;6.20;;
16029;SDS011;34770;49.272;11.070;2023-02-28T05:31:45;9.20;;;6.10;;
16029;SDS011;34770;49.272;11.070;2023-02-28T05:34:10;6.40;;;5.27;;
16029;SDS011;34770;49.272;11.070;2023-02-28T05:36:37;8.97;;;6.33;;
16029;SDS011;34770;49.272;11.070;2023-02-28T05:39:05;8.77;;;5.80;;
16029;SDS011;34770;49.272;11.070;2023-02-28T05:41:32;8.27;;;6.43;;
16029;SDS011;34770;49.272;11.070;2023-02-28T05:43:58;10.33;;;6.17;;
16029;SDS011;34770;49.272;11.070;2023-02-28T05:46:24;9.10;;;5.93;;
16029;SDS011;34770;49.272;11.070;2023-02-28T05:48:50;14.97;;;6.30;;
16029;SDS011;34770;49.272;11.070;2023-02-28T05:51:16;9.17;;;6.63;;
16029;SDS011;34770;49.272;11.070;2023-02-28T05:53:42;9.10;;;6.20;;
16029;SDS011;34770;49.272;11.070;2023-02-28T05:56:07;7.77;;;5.50;;
16029;SDS011;34770;49.272;11.070;2023-02-28T05:58:33;12.37;;;7.60;;
16029;SDS011;34770;49.272;11.070;2023-02-28T06:01:00;7.87;;;6.37;;
16029;SDS011;34770;49.272;11.070;2023-02-28T06:03:43;7.37;;;5.83;;
16029;SDS011;34770;49.272;11.070;2023-02-28T06:06:09;8.13;;;6.23;;
16029;SDS011;34770;49.272;11.070;2023-02-28T06:08:34;9.23;;;6.30;;
16029;SDS011;34770;49.272;11.070;2023-02-28T06:11:02;14.17;;;6.67;;
16029;SDS011;34770;49.272;11.070;2023-02-28T06:13:28;12.60;;;7.23;;
16029;SDS011;34770;49.272;11.070;2023-02-28T06:15:53;8.10;;;6.00;;
16029;SDS011;34770;49.272;11.070;2023-02-28T06:18:19;7.60;;;6.47;;
16029;SDS011;34770;49.272;11.070;2023-02-28T06:20:44;8.83;;;6.30;;
16029;SDS011;34770;49.272;11.070;2023-02-28T06:23:19;10.60;;;6.43;;
16029;SDS011;34770;49.272;11.070;2023-02-28T06:25:45;9.00;;;6.70;;
16029;SDS011;34770;49.272;11.070;2023-02-28T06:28:11;11.57;;;7.90;;
16029;SDS011;34770;49.272;11.070;2023-02-28T06:30:37;8.87;;;7.10;;
16029;SDS011;34770;49.272;11.070;2023-02-28T06:33:03;9.03;;;6.83;;
16029;SDS011;34770;49.272;11.070;2023-02-28T06:35:28;11.00;;;6.63;;
16029;SDS011;34770;49.272;11.070;2023-02-28T06:37:54;10.60;;;7.47;;
16029;SDS011;34770;49.272;11.070;2023-02-28T06:40:20;7.87;;;7.00;;
16029;SDS011;34770;49.272;11.070;2023-02-28T06:42:45;12.97;;;7.50;;
16029;SDS011;34770;49.272;11.070;2023-02-28T06:45:11;9.47;;;7.57;;
16029;SDS011;34770;49.272;11.070;2023-02-28T06:47:38;9.90;;;7.13;;
16029;SDS011;34770;49.272;11.070;2023-02-28T06:50:05;8.10;;;6.53;;
16029;SDS011;34770;49.272;11.070;2023-02-28T06:52:31;10.00;;;6.93;;
16029;SDS011;34770;49.272;11.070;2023-02-28T06:54:57;10.57;;;7.10;;
16029;SDS011;34770;49.272;11.070;2023-02-28T06:57:31;11.23;;;8.23;;
16029;SDS011;34770;49.272;11.070;2023-02-28T06:59:58;8.57;;;6.43;;
16029;SDS011;34770;49.272;11.070;2023-02-28T07:02:25;11.57;;;7.63;;
16029;SDS011;34770;49.272;11.070;2023-02-28T07:04:51;9.67;;;7.83;;
16029;SDS011;34770;49.272;11.070;2023-02-28T07:07:17;13.33;;;8.13;;
16029;SDS011;34770;49.272;11.070;2023-02-28T07:09:42;12.37;;;7.93;;
16029;SDS011;34770;49.272;11.070;2023-02-28T07:12:08;11.00;;;7.97;;
16029;SDS011;34770;49.272;11.070;2023-02-28T07:14:33;12.47;;;7.77;;
16029;SDS011;34770;49.272;11.070;2023-02-28T07:17:02;10.80;;;7.57;;
16029;SDS011;34770;49.272;11.070;2023-02-28T07:19:27;9.70;;;7.13;;
16029;SDS011;34770;49.272;11.070;2023-02-28T07:21:53;12.53;;;6.53;;
16029;SDS011;34770;49.272;11.070;2023-02-28T07:24:18;10.13;;;7.93;;
16029;SDS011;34770;49.272;11.070;2023-02-28T07:26:44;8.13;;;7.13;;
16029;SDS011;34770;49.272;11.070;2023-02-28T07:29:09;9.00;;;6.83;;
16029;SDS011;34770;49.272;11.070;2023-02-28T07:31:35;11.17;;;6.93;;
16029;SDS011;34770;49.272;11.070;2023-02-28T07:34:00;9.03;;;6.90;;
16029;SDS011;34770;49.272;11.070;2023-02-28T07:36:27;7.80;;;6.80;;
16029;SDS011;34770;49.272;11.070;2023-02-28T07:38:52;8.80;;;6.03;;
16029;SDS011;34770;49.272;11.070;2023-02-28T07:41:19;11.00;;;7.33;;
16029;SDS011;34770;49.272;11.070;2023-02-28T07:43:46;9.77;;;7.93;;
16029;SDS011;34770;49.272;11.070;2023-02-28T07:46:13;13.80;;;7.20;;
16029;SDS011;34770;49.272;11.070;2023-02-28T07:48:40;8.30;;;6.03;;
16029;SDS011;34770;49.272;11.070;2023-02-28T07:51:05;8.27;;;5.57;;
16029;SDS011;34770;49.272;11.070;2023-02-28T07:53:31;8.80;;;5.80;;
16029;SDS011;34770;49.272;11.070;2023-02-28T07:55:57;7.20;;;6.23;;
16029;SDS011;34770;49.272;11.070;2023-02-28T07:58:26;8.87;;;7.13;;
16029;SDS011;34770;49.272;11.070;2023-02-28T08:00:52;9.07;;;6.63;;
16029;SDS011;34770;49.272;11.070;2023-02-28T08:03:18;8.40;;;6.80;;
16029;SDS011;34770;49.272;11.070;2023-02-28T08:05:45;8.13;;;5.63;;
16029;SDS011;34770;49.272;11.070;2023-02-28T08:08:12;11.27;;;6.57;;
16029;SDS011;34770;49.272;11.070;2023-02-28T08:10:38;8.27;;;5.70;;
16029;SDS011;34770;49.272;11.070;2023-02-28T08:13:04;8.33;;;6.10;;
16029;SDS011;34770;49.272;11.070;2023-02-28T08:15:29;8.13;;;6.17;;
16029;SDS011;34770;49.272;11.070;2023-02-28T08:17:55;6.20;;;5.27;;
16029;SDS011;34770;49.272;11.070;2023-02-28T08:20:21;9.50;;;7.07;;
16029;SDS011;34770;49.272;11.070;2023-02-28T08:22:47;8.57;;;6.47;;
16029;SDS011;34770;49.272;11.070;2023-02-28T08:25:13;9.47;;;6.67;;
16029;SDS011;34770;49.272;11.070;2023-02-28T08:27:38;13.87;;;8.13;;
16029;SDS011;34770;49.272;11.070;2023-02-28T08:30:04;11.33;;;8.50;;
16029;SDS011;34770;49.272;11.070;2023-02-28T08:32:31;8.20;;;6.00;;
16029;SDS011;34770;49.272;11.070;2023-02-28T08:34:58;10.57;;;7.40;;
16029;SDS011;34770;49.272;11.070;2023-02-28T08:37:23;9.80;;;7.43;;
16029;SDS011;34770;49.272;11.070;2023-02-28T08:39:49;7.37;;;6.37;;
16029;SDS011;34770;49.272;11.070;2023-02-28T08:42:14;9.73;;;7.20;;
16029;SDS011;34770;49.272;11.070;2023-02-28T08:44:40;15.10;;;8.27;;
16029;SDS011;34770;49.272;11.070;2023-02-28T08:47:06;8.43;;;6.33;;
16029;SDS011;34770;49.272;11.070;2023-02-28T08:49:32;8.13;;;6.50;;
16029;SDS011;34770;49.272;11.070;2023-02-28T08:51:57;11.00;;;7.07;;
16029;SDS011;34770;49.272;11.070;2023-02-28T08:54:23;6.83;;;5.03;;
16029;SDS011;34770;49.272;11.070;2023-02-28T08:56:49;7.50;;;6.03;;
16029;SDS011;34770;49.272;11.070;2023-02-28T08:59:17;8.23;;;7.20;;
16029;SDS011;34770;49.272;11.070;2023-02-28T09:01:43;7.77;;;6.90;;
16029;SDS011;34770;49.272;11.070;2023-02-28T09:04:09;6.97;;;5.83;;
16029;SDS011;34770;49.272;11.070;2023-02-28T09:06:36;7.90;;;7.10;;
16029;SDS011;34770;49.272;11.070;2023-02-28T09:09:02;12.33;;;8.10;;
16029;SDS011;34770;49.272;11.070;2023-02-28T09:11:29;8.73;;;6.83;;
16029;SDS011;34770;49.272;11.070;2023-02-28T09:13:54;8.80;;;7.27;;
16029;SDS011;34770;49.272;11.070;2023-02-28T09:16:20;9.50;;;7.20;;
16029;SDS011;34770;49.272;11.070;2023-02-28T09:18:46;8.87;;;7.27;;
16029;SDS011;34770;49.272;11.070;2023-02-28T09:21:14;11.23;;;6.67;;
16029;SDS011;34770;49.272;11.070;2023-02-28T09:23:41;8.67;;;6.53;;
16029;SDS011;34770;49.272;11.070;2023-02-28T09:26:11;10.43;;;7.97;;
16029;SDS011;34770;49.272;11.070;2023-02-28T09:28:39;11.57;;;8.77;;
16029;SDS011;34770;49.272;11.070;2023-02-28T09:31:05;8.67;;;7.03;;
16029;SDS011;34770;49.272;11.070;2023-02-28T09:33:30;11.97;;;8.27;;
16029;SDS011;34770;49.272;11.070;2023-02-28T09:35:59;13.47;;;8.80;;
16029;SDS011;34770;49.272;11.070;2023-02-28T09:38:27;9.57;;;7.97;;
16029;SDS011;34770;49.272;11.070;2023-02-28T09:40:57;8.63;;;6.27;;
16029;SDS011;34770;49.272;11.070;2023-02-28T09:43:26;8.90;;;6.87;;
16029;SDS011;34770;49.272;11.070;2023-02-28T09:46:02;9.20;;;6.93;;
16029;SDS011;34770;49.272;11.070;2023-02-28T09:48:39;8.57;;;6.60;;
16029;SDS011;34770;49.272;11.070;2023-02-28T09:53:56;8.20;;;7.07;;
16029;SDS011;34770;49.272;11.070;2023-02-28T09:56:24;7.95;;;6.60;;
16029;SDS011;34770;49.272;11.070;2023-02-28T09:59:05;10.57;;;6.83;;
16029;SDS011;34770;49.272;11.070;2023-02-28T10:05:11;9.10;;;6.37;;
16029;SDS011;34770;49.272;11.070;2023-02-28T10:16:01;10.43;;;6.77;;
16029;SDS011;34770;49.272;11.070;2023-02-28T10:21:55;8.33;;;6.17;;
16029;SDS011;34770;49.272;11.070;2023-02-28T10:24:43;10.60;;;7.80;;
16029;SDS011;34770;49.272;11.070;2023-02-28T10:27:15;8.13;;;6.63;;
16029;SDS011;34770;49.272;11.070;2023-02-28T10:29:44;8.53;;;6.60;;
16029;SDS011;34770;49.272;11.070;2023-02-28T10:32:22;9.43;;;7.23;;
16029;SDS011;34770;49.272;11.070;2023-02-28T10:35:00;10.47;;;7.17;;
16029;SDS011;34770;49.272;11.070;2023-02-28T10:37:41;11.57;;;6.70;;
16029;SDS011;34770;49.272;11.070;2023-02-28T10:42:58;8.43;;;6.10;;
16029;SDS011;34770;49.272;11.070;2023-02-28T10:45:27;7.40;;;6.60;;
16029;SDS011;34770;49.272;11.070;2023-02-28T10:47:59;9.30;;;6.97;;
16029;SDS011;34770;49.272;11.070;2023-02-28T10:50:39;8.13;;;6.65;;
16029;SDS011;34770;49.272;11.070;2023-02-28T11:01:55;8.30;;;6.50;;
16029;SDS011;34770;49.272;11.070;2023-02-28T11:04:02;8.80;;;6.80;;
16029;SDS011;34770;49.272;11.070;2023-02-28T11:06:32;8.57;;;7.53;;
16029;SDS011;34770;49.272;11.070;2023-02-28T11:08:59;7.47;;;6.67;;
16029;SDS011;34770;49.272;11.070;2023-02-28T11:11:28;7.23;;;6.53;;
16029;SDS011;34770;49.272;11.070;2023-02-28T11:14:05;8.63;;;6.83;;
16029;SDS011;34770;49.272;11.070;2023-02-28T11:16:40;8.83;;;6.73;;
16029;SDS011;34770;49.272;11.070;2023-02-28T11:19:06;8.40;;;7.03;;
16029;SDS011;34770;49.272;11.070;2023-02-28T11:21:47;9.87;;;6.63;;
16029;SDS011;34770;49.272;11.070;2023-02-28T11:24:33;7.33;;;6.07;;
16029;SDS011;34770;49.272;11.070;2023-02-28T11:27:02;9.27;;;6.53;;
16029;SDS011;34770;49.272;11.070;2023-02-28T11:29:28;9.68;;;6.60;;
16029;SDS011;34770;49.272;11.070;2023-02-28T11:34:42;7.65;;;6.70;;
16029;SDS011;34770;49.272;11.070;2023-02-28T11:37:10;9.30;;;7.28;;
16029;SDS011;34770;49.272;11.070;2023-02-28T11:39:45;9.30;;;7.03;;
16029;SDS011;34770;49.272;11.070;2023-02-28T11:42:28;8.00;;;6.63;;
16029;SDS011;34770;49.272;11.070;2023-02-28T12:24:03;7.47;;;6.70;;
16029;SDS011;34770;49.272;11.070;2023-02-28T12:26:44;9.82;;;7.78;;
16029;SDS011;34770;49.272;11.070;2023-02-28T12:29:21;10.80;;;7.45;;
16029;SDS011;34770;49.272;11.070;2023-02-28T12:34:37;10.50;;;7.55;;
16029;SDS011;34770;49.272;11.070;2023-02-28T12:37:10;8.82;;;6.65;;
16029;SDS011;34770;49.272;11.070;2023-02-28T12:39:44;7.97;;;6.60;;
16029;SDS011;34770;49.272;11.070;2023-02-28T12:42:28;7.68;;;6.10;;
16029;SDS011;34770;49.272;11.070;2023-02-28T12:45:40;8.93;;;7.40;;
16029;SDS011;34770;49.272;11.070;2023-02-28T12:47:46;10.65;;;7.40;;
16029;SDS011;34770;49.272;11.070;2023-02-28T12:50:16;8.23;;;6.43;;
16029;SDS011;34770;49.272;11.070;2023-02-28T12:55:27;9.70;;;7.63;;
16029;SDS011;34770;49.272;11.070;2023-02-28T13:00:35;9.55;;;7.38;;
16029;SDS011;34770;49.272;11.070;2023-02-28T13:03:15;9.48;;;6.72;;
16029;SDS011;34770;49.272;11.070;2023-02-28T13:05:58;8.35;;;6.57;;
16029;SDS011;34770;49.272;11.070;2023-02-28T13:11:48;11.38;;;7.32;;
16029;SDS011;34770;49.272;11.070;2023-02-28T13:16:55;9.50;;;6.93;;
16029;SDS011;34770;49.272;11.070;2023-02-28T13:19:24;9.18;;;6.20;;
16029;SDS011;34770;49.272;11.070;2023-02-28T13:21:52;9.50;;;7.00;;
16029;SDS011;34770;49.272;11.070;2023-02-28T13:34:35;9.25;;;6.97;;
16029;SDS011;34770;49.272;11.070;2023-02-28T14:49:46;7.85;;;6.20;;
16029;SDS011;34770;49.272;11.070;2023-02-28T14:52:17;8.93;;;7.80;;
16029;SDS011;34770;49.272;11.070;2023-02-28T14:54:45;10.73;;;7.22;;
16029;SDS011;34770;49.272;11.070;2023-02-28T14:57:33;9.10;;;6.97;;
16029;SDS011;34770;49.272;11.070;2023-02-28T15:00:09;9.95;;;7.68;;
16029;SDS011;34770;49.272;11.070;2023-02-28T15:02:39;9.93;;;7.13;;
16029;SDS011;34770;49.272;11.070;2023-02-28T15:07:34;9.32;;;7.00;;
16029;SDS011;34770;49.272;11.070;2023-02-28T15:12:50;13.02;;;8.05;;
16029;SDS011;34770;49.272;11.070;2023-02-28T15:17:55;8.43;;;7.22;;
16029;SDS011;34770;49.272;11.070;2023-02-28T15:20:24;9.30;;;6.93;;
16029;SDS011;34770;49.272;11.070;2023-02-28T15:22:51;10.32;;;6.03;;
16029;SDS011;34770;49.272;11.070;2023-02-28T15:25:20;9.02;;;6.90;;
16029;SDS011;34770;49.272;11.070;2023-02-28T15:27:51;7.68;;;6.13;;
16029;SDS011;34770;49.272;11.070;2023-02-28T15:30:21;7.22;;;6.50;;
16029;SDS011;34770;49.272;11.070;2023-02-28T15:33:05;8.60;;;6.45;;
16029;SDS011;34770;49.272;11.070;2023-02-28T15:35:48;9.05;;;6.03;;
16029;SDS011;34770;49.272;11.070;2023-02-28T15:40:53;8.93;;;6.28;;
16029;SDS011;34770;49.272;11.070;2023-02-28T15:51:06;8.45;;;6.60;;
16029;SDS011;34770;49.272;11.070;2023-02-28T15:53:36;8.20;;;5.90;;
16029;SDS011;34770;49.272;11.070;2023-02-28T15:56:29;15.00;;;9.57;;
16029;SDS011;34770;49.272;11.070;2023-02-28T15:59:00;13.05;;;8.73;;
16029;SDS011;34770;49.272;11.070;2023-02-28T16:01:28;9.38;;;7.93;;
16029;SDS011;34770;49.272;11.070;2023-02-28T16:03:57;10.10;;;8.15;;
16029;SDS011;34770;49.272;11.070;2023-02-28T16:08:58;11.50;;;8.05;;
16029;SDS011;34770;49.272;11.070;2023-02-28T16:11:23;7.72;;;6.93;;
16029;SDS011;34770;49.272;11.070;2023-02-28T16:13:49;12.25;;;8.73;;
16029;SDS011;34770;49.272;11.070;2023-02-28T16:16:21;10.20;;;7.75;;
16029;SDS011;34770;49.272;11.070;2023-02-28T16:18:49;8.43;;;6.90;;
16029;SDS011;34770;49.272;11.070;2023-02-28T16:21:15;8.83;;;7.23;;
16029;SDS011;34770;49.272;11.070;2023-02-28T16:23:40;12.10;;;8.87;;
16029;SDS011;34770;49.272;11.070;2023-02-28T16:26:06;10.40;;;8.17;;
16029;SDS011;34770;49.272;11.070;2023-02-28T16:28:33;12.43;;;9.03;;
16029;SDS011;34770;49.272;11.070;2023-02-28T16:31:02;11.27;;;8.03;;
16029;SDS011;34770;49.272;11.070;2023-02-28T16:33:30;11.50;;;8.33;;
16029;SDS011;34770;49.272;11.070;2023-02-28T16:35:56;13.57;;;9.40;;
16029;SDS011;34770;49.272;11.070;2023-02-28T16:38:22;13.87;;;8.40;;
16029;SDS011;34770;49.272;11.070;2023-02-28T16:40:50;9.60;;;7.40;;
16029;SDS011;34770;49.272;11.070;2023-02-28T16:43:17;11.00;;;7.90;;
16029;SDS011;34770;49.272;11.070;2023-02-28T16:45:46;11.87;;;7.27;;
16029;SDS011;34770;49.272;11.070;2023-02-28T16:48:13;13.63;;;8.43;;
16029;SDS011;34770;49.272;11.070;2023-02-28T16:50:41;13.40;;;7.13;;
16029;SDS011;34770;49.272;11.070;2023-02-28T16:53:07;7.60;;;6.80;;
16029;SDS011;34770;49.272;11.070;2023-02-28T16:55:32;10.53;;;6.80;;
16029;SDS011;34770;49.272;11.070;2023-02-28T16:58:00;8.93;;;6.23;;
16029;SDS011;34770;49.272;11.070;2023-02-28T17:00:27;9.60;;;6.97;;
16029;SDS011;34770;49.272;11.070;2023-02-28T17:02:54;9.17;;;7.57;;
16029;SDS011;34770;49.272;11.070;2023-02-28T17:05:20;9.53;;;6.70;;
16029;SDS011;34770;49.272;11.070;2023-02-28T17:07:46;7.77;;;5.83;;
16029;SDS011;34770;49.272;11.070;2023-02-28T17:10:20;8.23;;;7.07;;
16029;SDS011;34770;49.272;11.070;2023-02-28T17:12:48;8.30;;;6.93;;
16029;SDS011;34770;49.272;11.070;2023-02-28T17:15:15;8.70;;;6.93;;
16029;SDS011;34770;49.272;11.070;2023-02-28T17:17:41;18.10;;;11.33;;
16029;SDS011;34770;49.272;11.070;2023-02-28T17:20:12;12.50;;;8.47;;
16029;SDS011;34770;49.272;11.070;2023-02-28T17:22:39;10.63;;;7.33;;
16029;SDS011;34770;49.272;11.070;2023-02-28T17:25:05;7.10;;;6.40;;
16029;SDS011;34770;49.272;11.070;2023-02-28T17:27:30;8.87;;;6.00;;
16029;SDS011;34770;49.272;11.070;2023-02-28T17:29:56;8.63;;;6.43;;
16029;SDS011;34770;49.272;11.070;2023-02-28T17:32:21;8.13;;;6.10;;
16029;SDS011;34770;49.272;11.070;2023-02-28T17:34:47;8.53;;;6.83;;
16029;SDS011;34770;49.272;11.070;2023-02-28T17:37:12;9.40;;;6.73;;
16029;SDS011;34770;49.272;11.070;2023-02-28T17:39:38;8.93;;;7.00;;
16029;SDS011;34770;49.272;11.070;2023-02-28T17:42:03;8.47;;;6.23;;
16029;SDS011;34770;49.272;11.070;2023-02-28T17:44:29;9.10;;;6.57;;
16029;SDS011;34770;49.272;11.070;2023-02-28T17:46:54;8.60;;;6.13;;
16029;SDS011;34770;49.272;11.070;2023-02-28T17:49:21;9.97;;;7.63;;
16029;SDS011;34770;49.272;11.070;2023-02-28T17:51:47;8.13;;;6.00;;
16029;SDS011;34770;49.272;11.070;2023-02-28T17:54:13;9.57;;;6.77;;
16029;SDS011;34770;49.272;11.070;2023-02-28T17:56:40;10.53;;;6.60;;
16029;SDS011;34770;49.272;11.070;2023-02-28T17:59:08;10.03;;;5.80;;
16029;SDS011;34770;49.272;11.070;2023-02-28T18:01:34;8.80;;;6.17;;
16029;SDS011;34770;49.272;11.070;2023-02-28T18:03:59;14.10;;;7.07;;
16029;SDS011;34770;49.272;11.070;2023-02-28T18:06:26;9.10;;;6.47;;
16029;SDS011;34770;49.272;11.070;2023-02-28T18:08:56;8.80;;;5.90;;
16029;SDS011;34770;49.272;11.070;2023-02-28T18:11:22;8.87;;;6.37;;
16029;SDS011;34770;49.272;11.070;2023-02-28T18:13:52;7.43;;;5.97;;
16029;SDS011;34770;49.272;11.070;2023-02-28T18:16:20;10.17;;;7.23;;
16029;SDS011;34770;49.272;11.070;2023-02-28T18:18:46;8.73;;;6.20;;
16029;SDS011;34770;49.272;11.070;2023-02-28T18:21:13;10.47;;;6.50;;
16029;SDS011;34770;49.272;11.070;2023-02-28T18:23:41;7.10;;;6.40;;
16029;SDS011;34770;49.272;11.070;2023-02-28T18:26:13;8.87;;;5.83;;
16029;SDS011;34770;49.272;11.070;2023-02-28T18:28:40;8.10;;;6.90;;